Time;durP1;ratioP1;P1;durP2;ratioP2;P2;SDS_P1;SDS_P2;PMS_P1;PMS_P2;Temp;Humidity;BMP_temperature;BMP_pressure;BME280_temperature;BME280_humidity;BME280_pressure;Samples;Min_cycle;Max_cycle;Signal;HPM_P1;HPM_P2
2024/01/20 00:01:36;;;;;;;0.65;0.65;;;3.00;99.90;;;;;;5024195;28;20144;-69
2024/01/20 00:04:02;;;;;;;0.10;0.10;;;2.90;99.90;;;;;;5014216;28;20030;-69
2024/01/20 00:06:27;;;;;;;0.70;0.70;;;3.00;99.90;;;;;;5029259;28;20448;-69
2024/01/20 00:08:53;;;;;;;10.88;1.65;;;2.90;99.90;;;;;;5030491;28;20136;-69
2024/01/20 00:11:18;;;;;;;0.10;0.10;;;2.90;99.90;;;;;;5025138;28;20046;-69
2024/01/20 00:13:44;;;;;;;0.10;0.10;;;2.90;99.90;;;;;;5021380;28;20045;-69
2024/01/20 00:16:10;;;;;;;0.10;0.10;;;3.00;99.90;;;;;;5019015;28;20050;-69
2024/01/20 00:18:35;;;;;;;0.20;0.20;;;3.00;99.90;;;;;;5023322;28;20045;-69
2024/01/20 00:21:01;;;;;;;0.10;0.10;;;3.00;99.90;;;;;;5030596;28;20037;-69
2024/01/20 00:23:26;;;;;;;0.10;0.10;;;3.20;99.90;;;;;;5036244;28;20374;-69
2024/01/20 00:25:53;;;;;;;0.10;0.10;;;3.10;99.90;;;;;;5020922;28;20132;-69
2024/01/20 00:28:18;;;;;;;0.10;0.10;;;2.90;99.90;;;;;;5023416;28;20047;-69
2024/01/20 00:30:44;;;;;;;0.73;0.73;;;2.70;99.90;;;;;;5029046;28;20053;-69
2024/01/20 00:33:10;;;;;;;2.50;2.20;;;2.60;99.90;;;;;;5021114;28;20088;-69
2024/01/20 00:35:36;;;;;;;0.10;0.10;;;2.60;99.90;;;;;;5027116;28;20045;-69
2024/01/20 00:38:03;;;;;;;0.25;0.25;;;2.50;99.90;;;;;;5024610;28;20049;-69
2024/01/20 00:40:29;;;;;;;0.52;0.52;;;2.50;99.90;;;;;;5017315;28;20531;-68
2024/01/20 00:42:55;;;;;;;0.10;0.10;;;2.50;99.90;;;;;;5042061;28;20077;-70
2024/01/20 00:45:20;;;;;;;0.10;0.10;;;2.50;99.90;;;;;;5029991;28;20059;-70
2024/01/20 00:47:46;;;;;;;0.98;0.50;;;2.60;99.90;;;;;;5025708;28;20053;-70
2024/01/20 00:50:11;;;;;;;0.17;0.17;;;2.60;99.90;;;;;;5025728;28;20601;-70
2024/01/20 00:52:37;;;;;;;0.10;0.10;;;2.60;99.90;;;;;;5029635;28;20465;-70
2024/01/20 00:55:03;;;;;;;0.10;0.10;;;2.50;99.90;;;;;;5011067;28;20300;-70
2024/01/20 00:57:29;;;;;;;0.17;0.17;;;2.60;99.90;;;;;;5018852;28;20042;-70
2024/01/20 00:59:55;;;;;;;0.10;0.10;;;2.60;99.90;;;;;;5045449;28;20048;-70
2024/01/20 01:02:21;;;;;;;0.17;0.17;;;2.60;99.90;;;;;;5029431;28;20041;-70
2024/01/20 01:04:47;;;;;;;0.73;0.73;;;2.60;99.90;;;;;;5024090;28;20041;-70
2024/01/20 01:07:12;;;;;;;0.10;0.10;;;2.50;99.90;;;;;;5021112;28;20112;-70
2024/01/20 01:09:38;;;;;;;0.10;0.10;;;2.60;99.90;;;;;;5027840;28;20152;-70
2024/01/20 01:12:04;;;;;;;0.20;0.20;;;2.50;99.90;;;;;;5020046;28;20428;-68
2024/01/20 01:14:29;;;;;;;0.68;0.68;;;2.50;99.90;;;;;;5024879;28;20493;-68
2024/01/20 01:16:55;;;;;;;0.15;0.15;;;2.50;99.90;;;;;;5028449;28;20045;-68
2024/01/20 01:19:20;;;;;;;0.10;0.10;;;2.50;99.90;;;;;;5029518;28;20508;-68
2024/01/20 01:21:46;;;;;;;0.30;0.30;;;2.50;99.90;;;;;;5018445;28;20049;-68
2024/01/20 01:24:12;;;;;;;0.20;0.20;;;2.50;99.90;;;;;;5022193;28;20053;-68
2024/01/20 01:26:37;;;;;;;0.17;0.17;;;2.50;99.90;;;;;;5026591;28;20060;-68
2024/01/20 01:29:04;;;;;;;0.20;0.20;;;2.50;99.90;;;;;;5027563;28;20037;-68
2024/01/20 01:31:30;;;;;;;0.10;0.10;;;2.50;99.90;;;;;;5017432;28;20045;-68
2024/01/20 01:33:56;;;;;;;0.10;0.10;;;2.50;99.90;;;;;;5028056;28;20048;-67
2024/01/20 01:36:21;;;;;;;0.10;0.10;;;2.50;99.90;;;;;;5014713;28;20506;-68
2024/01/20 01:38:47;;;;;;;0.30;0.30;;;2.50;99.90;;;;;;5028552;28;20045;-68
2024/01/20 01:41:12;;;;;;;0.10;0.10;;;2.50;99.90;;;;;;5029160;28;20551;-68
2024/01/20 01:43:38;;;;;;;0.10;0.10;;;2.50;99.90;;;;;;5021175;28;20048;-67
2024/01/20 01:46:04;;;;;;;0.10;0.10;;;2.50;99.90;;;;;;5029896;28;20045;-68
2024/01/20 01:48:30;;;;;;;0.10;0.10;;;2.50;99.90;;;;;;5027196;28;20501;-68
2024/01/20 01:50:57;;;;;;;0.15;0.15;;;2.50;99.90;;;;;;5020253;28;20049;-68
2024/01/20 01:53:23;;;;;;;0.40;0.40;;;2.50;99.90;;;;;;5026828;28;20076;-67
2024/01/20 01:55:50;;;;;;;0.10;0.10;;;2.50;99.90;;;;;;5026787;28;20080;-67
2024/01/20 01:58:15;;;;;;;0.10;0.10;;;2.50;99.90;;;;;;5017309;28;20125;-67
2024/01/20 02:00:41;;;;;;;0.25;0.25;;;2.50;99.90;;;;;;5024737;28;20129;-67
2024/01/20 02:03:08;;;;;;;0.10;0.10;;;2.50;99.90;;;;;;5024460;28;20504;-68
2024/01/20 02:05:34;;;;;;;2.40;2.28;;;2.50;99.90;;;;;;5026161;28;20079;-67
2024/01/20 02:08:00;;;;;;;0.13;0.13;;;2.50;99.90;;;;;;5027641;28;20469;-68
2024/01/20 02:10:25;;;;;;;0.10;0.10;;;2.60;99.90;;;;;;5017016;28;20049;-68
2024/01/20 02:12:52;;;;;;;0.10;0.10;;;2.60;99.90;;;;;;5026419;28;20649;-67
2024/01/20 02:15:18;;;;;;;0.10;0.10;;;2.60;99.90;;;;;;5026362;28;20049;-68
2024/01/20 02:17:53;;;;;;;0.10;0.10;;;2.70;99.90;;;;;;5023881;28;20042;-68
2024/01/20 02:20:19;;;;;;;0.30;0.30;;;2.70;99.90;;;;;;5023679;28;20096;-67
2024/01/20 02:22:45;;;;;;;0.15;0.15;;;2.70;99.90;;;;;;5027086;28;20437;-68
2024/01/20 02:25:11;;;;;;;0.20;0.20;;;2.70;99.90;;;;;;5025552;28;20448;-68
2024/01/20 02:27:36;;;;;;;0.40;0.40;;;2.60;99.90;;;;;;5031399;28;20041;-68
2024/01/20 02:30:02;;;;;;;0.57;0.57;;;2.50;99.90;;;;;;5022656;28;20049;-68
2024/01/20 02:32:28;;;;;;;0.63;0.63;;;2.60;99.90;;;;;;5019143;28;20049;-67
2024/01/20 02:34:53;;;;;;;0.10;0.10;;;2.50;99.90;;;;;;5025579;28;20053;-67
2024/01/20 02:37:19;;;;;;;0.20;0.20;;;2.50;99.90;;;;;;5035341;28;20042;-67
2024/01/20 02:39:44;;;;;;;0.10;0.10;;;2.50;99.90;;;;;;5022850;28;20069;-67
2024/01/20 02:42:10;;;;;;;0.20;0.20;;;2.50;99.90;;;;;;5020810;28;20206;-68
2024/01/20 02:44:37;;;;;;;0.10;0.10;;;2.50;99.90;;;;;;5025474;28;20053;-68
2024/01/20 02:47:03;;;;;;;0.10;0.10;;;2.50;99.90;;;;;;5027142;28;20077;-67
2024/01/20 02:49:29;;;;;;;0.40;0.38;;;2.50;99.90;;;;;;5018936;28;20486;-68
2024/01/20 02:51:54;;;;;;;0.10;0.10;;;2.50;99.90;;;;;;5023364;28;20064;-68
2024/01/20 02:54:20;;;;;;;0.15;0.15;;;2.50;99.90;;;;;;5021797;28;20467;-68
2024/01/20 02:56:45;;;;;;;0.20;0.20;;;2.50;99.90;;;;;;5026544;28;20057;-68
2024/01/20 02:59:11;;;;;;;0.20;0.20;;;2.50;99.90;;;;;;5015510;28;20038;-67
2024/01/20 03:01:37;;;;;;;0.20;0.20;;;2.50;99.90;;;;;;5024682;28;20054;-68
2024/01/20 03:04:02;;;;;;;0.10;0.10;;;2.50;99.90;;;;;;5031213;28;20409;-68
2024/01/20 03:06:28;;;;;;;0.30;0.30;;;2.40;99.90;;;;;;5027875;28;20150;-68
2024/01/20 03:08:54;;;;;;;0.15;0.15;;;2.40;99.90;;;;;;5021448;28;20049;-68
2024/01/20 03:11:20;;;;;;;0.10;0.10;;;2.40;99.90;;;;;;5023412;28;20056;-67
2024/01/20 03:13:45;;;;;;;0.20;0.20;;;2.40;99.90;;;;;;5025477;28;20412;-68
2024/01/20 03:16:11;;;;;;;0.38;0.38;;;2.50;99.90;;;;;;5022099;28;20037;-68
2024/01/20 03:18:40;;;;;;;1.27;0.95;;;2.50;99.90;;;;;;5030318;28;20439;-68
2024/01/20 03:21:06;;;;;;;0.10;0.10;;;2.50;99.90;;;;;;5020219;28;20038;-67
2024/01/20 03:23:32;;;;;;;0.20;0.20;;;2.50;99.90;;;;;;5030428;28;20140;-68
2024/01/20 03:25:58;;;;;;;0.10;0.10;;;2.50;99.90;;;;;;5028937;28;20050;-68
2024/01/20 03:28:23;;;;;;;0.20;0.20;;;2.50;99.90;;;;;;5021451;28;20056;-68
2024/01/20 03:30:49;;;;;;;0.10;0.10;;;2.50;99.90;;;;;;5031616;28;20049;-67
2024/01/20 03:33:14;;;;;;;0.10;0.10;;;2.40;99.90;;;;;;5030154;28;20394;-68
2024/01/20 03:35:40;;;;;;;0.10;0.10;;;2.40;99.90;;;;;;5023593;28;20219;-68
2024/01/20 03:38:06;;;;;;;0.10;0.10;;;2.40;99.90;;;;;;5023148;28;20072;-67
2024/01/20 03:40:31;;;;;;;0.20;0.20;;;2.30;99.90;;;;;;5020829;28;20054;-68
2024/01/20 03:42:57;;;;;;;0.10;0.10;;;2.30;99.90;;;;;;5024501;28;20505;-68
2024/01/20 03:45:22;;;;;;;0.20;0.20;;;2.20;99.90;;;;;;5030132;28;20045;-67
2024/01/20 03:47:48;;;;;;;0.55;0.45;;;2.20;99.90;;;;;;5021026;28;20053;-68
2024/01/20 03:50:14;;;;;;;13.25;2.17;;;2.20;99.90;;;;;;5022824;28;20037;-67
2024/01/20 03:52:39;;;;;;;4.57;1.55;;;2.20;99.90;;;;;;5025774;28;20126;-67
2024/01/20 03:55:06;;;;;;;0.10;0.10;;;2.20;99.90;;;;;;5037390;28;20888;-67
2024/01/20 03:57:32;;;;;;;0.43;0.43;;;2.20;99.90;;;;;;5015943;28;20048;-67
2024/01/20 03:59:57;;;;;;;0.10;0.10;;;2.10;99.90;;;;;;5027017;28;20037;-67
2024/01/20 04:02:23;;;;;;;0.30;0.30;;;2.10;99.90;;;;;;5024568;28;20037;-67
2024/01/20 04:04:48;;;;;;;0.20;0.20;;;2.00;99.90;;;;;;5027200;28;20061;-67
2024/01/20 04:07:14;;;;;;;1.02;0.93;;;2.00;99.90;;;;;;5014697;28;20045;-67
2024/01/20 04:09:41;;;;;;;0.10;0.10;;;2.10;99.90;;;;;;5029360;28;20049;-68
2024/01/20 04:12:07;;;;;;;2.83;2.05;;;2.20;99.90;;;;;;5028298;28;20116;-67
2024/01/20 04:14:33;;;;;;;0.10;0.10;;;2.30;99.90;;;;;;5026475;28;20033;-67
2024/01/20 04:16:58;;;;;;;0.17;0.17;;;2.40;99.90;;;;;;5024694;28;20036;-68
2024/01/20 04:19:24;;;;;;;0.93;0.90;;;2.50;99.90;;;;;;5030253;28;20080;-67
2024/01/20 04:21:49;;;;;;;0.25;0.25;;;2.50;99.90;;;;;;5029412;28;20041;-67
2024/01/20 04:24:15;;;;;;;0.60;0.40;;;2.50;99.90;;;;;;5025628;28;20095;-67
2024/01/20 04:26:41;;;;;;;0.93;0.88;;;2.50;99.90;;;;;;5027250;28;20468;-68
2024/01/20 04:29:06;;;;;;;0.20;0.20;;;2.50;99.90;;;;;;5030094;28;20084;-68
2024/01/20 04:31:32;;;;;;;0.10;0.10;;;2.50;99.90;;;;;;5020364;28;20053;-68
2024/01/20 04:33:58;;;;;;;0.10;0.10;;;2.40;99.90;;;;;;5027550;28;20049;-67
2024/01/20 04:36:24;;;;;;;0.15;0.15;;;2.40;99.90;;;;;;5030117;28;20041;-67
2024/01/20 04:38:50;;;;;;;0.10;0.10;;;2.30;99.90;;;;;;5023404;28;20516;-67
2024/01/20 04:41:15;;;;;;;0.22;0.22;;;2.30;99.90;;;;;;5024784;28;20064;-67
2024/01/20 04:43:42;;;;;;;0.20;0.20;;;2.20;99.90;;;;;;5020932;28;20587;-68
2024/01/20 04:46:07;;;;;;;0.10;0.10;;;2.10;99.90;;;;;;5023293;28;20053;-70
2024/01/20 04:48:33;;;;;;;3.72;2.30;;;2.00;99.90;;;;;;5028474;28;20043;-68
2024/01/20 04:50:59;;;;;;;0.15;0.15;;;2.00;99.90;;;;;;5029346;28;20049;-68
2024/01/20 04:53:24;;;;;;;0.10;0.10;;;1.90;99.90;;;;;;5022165;28;20056;-68
2024/01/20 04:55:50;;;;;;;0.43;0.43;;;1.90;99.90;;;;;;5023932;28;20103;-68
2024/01/20 04:58:16;;;;;;;0.20;0.20;;;1.80;99.90;;;;;;5018517;28;20124;-68
2024/01/20 05:00:42;;;;;;;0.30;0.30;;;1.80;99.90;;;;;;5015550;28;20046;-68
2024/01/20 05:03:07;;;;;;;0.20;0.20;;;1.80;99.90;;;;;;5020899;28;20048;-68
2024/01/20 05:05:33;;;;;;;1.30;1.15;;;1.80;99.90;;;;;;5020297;28;20504;-68
2024/01/20 05:07:58;;;;;;;1.10;1.10;;;1.80;99.90;;;;;;5028314;28;20041;-67
2024/01/20 05:10:24;;;;;;;6.47;3.22;;;1.80;99.90;;;;;;5021640;28;20095;-68
2024/01/20 05:12:50;;;;;;;0.10;0.10;;;1.80;99.90;;;;;;5026920;28;20068;-68
2024/01/20 05:15:16;;;;;;;0.10;0.10;;;1.70;99.90;;;;;;5028045;28;20081;-68
2024/01/20 05:17:41;;;;;;;0.22;0.22;;;1.80;99.90;;;;;;5030627;28;20041;-68
2024/01/20 05:20:07;;;;;;;0.45;0.45;;;1.70;99.90;;;;;;5022519;28;20049;-68
2024/01/20 05:22:33;;;;;;;0.68;0.68;;;1.80;99.90;;;;;;5021948;28;20037;-68
2024/01/20 05:24:59;;;;;;;0.20;0.20;;;1.80;99.90;;;;;;5027565;28;20123;-68
2024/01/20 05:27:25;;;;;;;0.10;0.10;;;1.80;99.90;;;;;;5025831;28;20041;-68
2024/01/20 05:29:51;;;;;;;0.30;0.30;;;1.80;99.90;;;;;;5023605;28;20060;-68
2024/01/20 05:32:17;;;;;;;0.30;0.30;;;1.80;99.90;;;;;;5040191;28;20041;-68
2024/01/20 05:34:42;;;;;;;0.35;0.35;;;1.90;99.90;;;;;;5026224;28;20083;-68
2024/01/20 05:37:08;;;;;;;0.20;0.20;;;1.90;99.90;;;;;;5025915;28;20037;-68
2024/01/20 05:39:34;;;;;;;0.40;0.40;;;1.90;99.90;;;;;;5020120;28;20784;-69
2024/01/20 05:42:00;;;;;;;0.25;0.25;;;2.00;99.90;;;;;;5014779;28;20072;-69
2024/01/20 05:44:26;;;;;;;0.60;0.60;;;2.00;99.90;;;;;;5038131;28;20049;-68
2024/01/20 05:46:52;;;;;;;0.88;0.88;;;2.00;99.90;;;;;;5022837;28;20060;-68
2024/01/20 05:49:18;;;;;;;0.20;0.20;;;2.00;99.90;;;;;;5025280;28;20041;-68
2024/01/20 05:51:43;;;;;;;0.43;0.43;;;2.00;99.90;;;;;;5027987;28;20049;-68
2024/01/20 05:54:09;;;;;;;1.38;0.45;;;2.00;99.90;;;;;;5034808;28;20436;-69
2024/01/20 05:56:34;;;;;;;0.20;0.20;;;2.00;99.90;;;;;;5025949;28;20044;-68
2024/01/20 05:59:00;;;;;;;0.20;0.20;;;2.10;99.90;;;;;;5019297;28;20405;-68
2024/01/20 06:01:26;;;;;;;0.10;0.10;;;2.00;99.90;;;;;;5024184;28;20156;-69
2024/01/20 06:03:51;;;;;;;0.10;0.10;;;2.00;99.90;;;;;;5026040;28;20473;-68
2024/01/20 06:06:17;;;;;;;0.10;0.10;;;1.90;99.90;;;;;;5019116;28;20045;-68
2024/01/20 06:08:42;;;;;;;6.07;1.10;;;1.90;99.90;;;;;;5025562;28;20056;-68
2024/01/20 06:11:11;;;;;;;7.43;3.15;;;1.80;99.90;;;;;;5022351;28;20064;-68
2024/01/20 06:13:37;;;;;;;0.17;0.17;;;1.70;99.90;;;;;;5020211;28;20033;-68
2024/01/20 06:16:05;;;;;;;0.57;0.57;;;1.80;99.90;;;;;;5023008;28;20397;-68
2024/01/20 06:18:31;;;;;;;0.30;0.30;;;1.80;99.90;;;;;;5021832;28;20045;-68
2024/01/20 06:20:59;;;;;;;2.20;2.03;;;1.80;99.90;;;;;;5019877;28;20088;-68
2024/01/20 06:23:25;;;;;;;0.93;0.93;;;1.90;99.90;;;;;;5019441;28;20042;-68
2024/01/20 06:25:51;;;;;;;0.30;0.30;;;1.90;99.90;;;;;;5022963;28;20374;-68
2024/01/20 06:28:17;;;;;;;0.22;0.22;;;2.00;99.90;;;;;;5024422;28;20099;-68
2024/01/20 06:30:46;;;;;;;1.90;1.80;;;1.90;99.90;;;;;;5018511;28;20041;-68
2024/01/20 06:33:11;;;;;;;0.45;0.45;;;1.90;99.90;;;;;;5034399;28;20482;-68
2024/01/20 06:35:37;;;;;;;0.45;0.45;;;2.00;99.90;;;;;;5027571;28;20124;-68
2024/01/20 06:38:03;;;;;;;0.10;0.10;;;2.00;99.90;;;;;;5020934;28;20508;-68
2024/01/20 06:40:29;;;;;;;0.30;0.30;;;2.00;99.90;;;;;;5028045;28;20145;-68
2024/01/20 06:42:54;;;;;;;0.75;0.75;;;2.10;99.90;;;;;;5032714;28;20140;-68
2024/01/20 06:45:20;;;;;;;0.20;0.20;;;2.10;99.90;;;;;;5022445;28;20058;-68
2024/01/20 06:47:45;;;;;;;0.38;0.38;;;2.00;99.90;;;;;;5028565;28;20049;-68
2024/01/20 06:50:12;;;;;;;0.88;0.80;;;2.00;99.90;;;;;;5023427;28;20080;-68
2024/01/20 06:52:38;;;;;;;3.50;1.65;;;2.00;99.90;;;;;;5030991;28;20042;-68
2024/01/20 06:55:05;;;;;;;4.25;3.30;;;2.00;99.90;;;;;;5029830;28;20052;-68
2024/01/20 06:57:30;;;;;;;3.60;1.75;;;2.00;99.90;;;;;;5030748;28;20095;-68
2024/01/20 06:59:56;;;;;;;0.43;0.43;;;1.90;99.90;;;;;;5016247;28;20041;-68
2024/01/20 07:02:22;;;;;;;0.25;0.25;;;1.90;99.90;;;;;;5022603;28;20042;-68
2024/01/20 07:04:47;;;;;;;3.42;1.20;;;1.80;99.90;;;;;;5026105;28;20462;-68
2024/01/20 07:07:13;;;;;;;0.10;0.10;;;1.80;99.90;;;;;;5018779;28;20088;-68
2024/01/20 07:09:39;;;;;;;0.47;0.47;;;1.80;99.90;;;;;;5021765;28;20053;-67
2024/01/20 07:12:06;;;;;;;0.25;0.25;;;1.80;99.90;;;;;;5031294;28;20038;-68
2024/01/20 07:14:32;;;;;;;0.75;0.75;;;1.80;99.90;;;;;;5026943;28;20041;-68
2024/01/20 07:16:57;;;;;;;1.17;1.10;;;1.80;99.90;;;;;;5023743;28;20049;-68
2024/01/20 07:19:23;;;;;;;5.18;1.80;;;1.80;99.90;;;;;;5018206;28;20124;-68
2024/01/20 07:21:48;;;;;;;0.20;0.20;;;1.80;99.90;;;;;;5028431;28;20417;-68
2024/01/20 07:24:14;;;;;;;1.40;1.30;;;1.80;99.90;;;;;;5024327;28;20090;-67
2024/01/20 07:26:39;;;;;;;0.30;0.30;;;1.80;99.90;;;;;;5021318;28;20057;-67
2024/01/20 07:29:05;;;;;;;0.40;0.40;;;1.80;99.90;;;;;;5029813;28;20045;-67
2024/01/20 07:31:31;;;;;;;0.57;0.57;;;1.80;99.90;;;;;;5028978;28;20462;-68
2024/01/20 07:33:56;;;;;;;2.25;1.27;;;1.70;99.90;;;;;;5022505;28;20057;-68
2024/01/20 07:36:22;;;;;;;0.20;0.20;;;1.70;99.90;;;;;;5030497;28;20045;-68
2024/01/20 07:38:47;;;;;;;0.30;0.30;;;1.70;99.90;;;;;;5029725;28;20057;-68
2024/01/20 07:41:13;;;;;;;2.33;2.13;;;1.70;99.90;;;;;;5029044;28;20144;-68
2024/01/20 07:43:39;;;;;;;0.63;0.63;;;1.70;99.90;;;;;;5024618;28;20131;-67
2024/01/20 07:46:04;;;;;;;1.30;1.25;;;1.80;99.90;;;;;;5023985;28;20049;-68
2024/01/20 07:48:30;;;;;;;0.47;0.47;;;1.80;99.90;;;;;;5018740;28;20046;-68
2024/01/20 07:50:56;;;;;;;0.20;0.20;;;1.80;99.90;;;;;;5027048;28;20564;-68
2024/01/20 07:53:21;;;;;;;0.57;0.57;;;1.80;99.90;;;;;;5028748;28;20063;-68
2024/01/20 07:55:48;;;;;;;0.28;0.28;;;1.80;99.90;;;;;;5022903;28;20073;-67
2024/01/20 07:58:14;;;;;;;0.88;0.88;;;1.80;99.90;;;;;;5022605;28;20050;-68
2024/01/20 08:00:39;;;;;;;0.40;0.40;;;1.80;99.90;;;;;;5017237;28;20057;-68
2024/01/20 08:03:05;;;;;;;0.65;0.65;;;1.80;99.90;;;;;;5022398;28;20064;-68
2024/01/20 08:05:31;;;;;;;0.80;0.80;;;1.80;99.90;;;;;;5021417;28;20057;-68
2024/01/20 08:07:57;;;;;;;0.50;0.50;;;1.80;99.90;;;;;;5041577;28;20041;-68
2024/01/20 08:10:23;;;;;;;0.30;0.30;;;1.70;99.90;;;;;;5025567;28;20064;-68
2024/01/20 08:12:50;;;;;;;1.38;1.27;;;1.80;99.90;;;;;;5027739;28;20065;-67
2024/01/20 08:15:15;;;;;;;0.60;0.60;;;1.80;99.90;;;;;;5017722;28;20045;-68
2024/01/20 08:17:41;;;;;;;0.98;0.98;;;1.80;99.90;;;;;;5027769;28;20060;-68
2024/01/20 08:20:07;;;;;;;4.85;2.65;;;1.80;99.90;;;;;;5030541;28;20045;-67
2024/01/20 08:22:32;;;;;;;0.60;0.60;;;1.80;99.90;;;;;;5022852;28;20073;-68
2024/01/20 08:24:59;;;;;;;0.40;0.40;;;1.80;99.90;;;;;;5024020;28;20084;-68
2024/01/20 08:27:25;;;;;;;0.73;0.73;;;1.80;99.90;;;;;;5029173;28;20045;-68
2024/01/20 08:29:50;;;;;;;3.20;2.70;;;1.80;99.90;;;;;;5019939;28;20370;-68
2024/01/20 08:32:16;;;;;;;0.28;0.28;;;1.80;99.90;;;;;;5026675;28;20042;-68
2024/01/20 08:34:42;;;;;;;1.80;1.70;;;1.80;99.90;;;;;;5024408;28;20489;-68
2024/01/20 08:37:07;;;;;;;0.55;0.55;;;1.90;99.90;;;;;;5029490;28;20045;-68
2024/01/20 08:39:33;;;;;;;2.28;1.50;;;1.80;99.90;;;;;;5022483;28;20084;-68
2024/01/20 08:41:58;;;;;;;0.80;0.77;;;1.80;99.90;;;;;;5024776;28;20049;-67
2024/01/20 08:44:24;;;;;;;0.82;0.82;;;1.90;99.90;;;;;;5024550;28;20045;-67
2024/01/20 08:46:49;;;;;;;0.20;0.20;;;1.90;99.90;;;;;;5022657;28;20096;-67
2024/01/20 08:49:15;;;;;;;1.33;0.93;;;1.90;99.90;;;;;;5028418;28;20448;-67
2024/01/20 08:51:41;;;;;;;0.57;0.57;;;1.90;99.90;;;;;;5026707;28;20127;-67
2024/01/20 08:54:07;;;;;;;0.40;0.40;;;1.90;99.90;;;;;;5044065;28;20096;-67
2024/01/20 08:56:33;;;;;;;3.25;2.95;;;1.90;99.90;;;;;;5022556;28;20475;-67
2024/01/20 08:58:58;;;;;;;21.65;2.92;;;1.90;99.90;;;;;;5023291;28;20037;-67
2024/01/20 09:01:24;;;;;;;1.10;1.10;;;1.90;99.90;;;;;;5026603;28;20432;-68
2024/01/20 09:03:49;;;;;;;0.65;0.65;;;2.00;99.90;;;;;;5021501;28;20052;-67
2024/01/20 09:06:15;;;;;;;1.77;1.33;;;2.00;99.90;;;;;;5025117;28;20045;-68
2024/01/20 09:08:41;;;;;;;5.18;2.60;;;2.00;99.90;;;;;;5027904;28;20054;-67
2024/01/20 09:11:07;;;;;;;0.52;0.52;;;2.00;99.90;;;;;;5024126;28;20048;-69
2024/01/20 09:13:33;;;;;;;0.47;0.47;;;2.10;99.90;;;;;;5021062;28;20033;-67
2024/01/20 09:15:58;;;;;;;0.20;0.20;;;2.10;99.90;;;;;;5022940;28;20037;-67
2024/01/20 09:18:24;;;;;;;2.45;2.33;;;2.10;99.90;;;;;;5027243;28;20601;-67
2024/01/20 09:20:50;;;;;;;1.98;1.88;;;2.10;99.90;;;;;;5027274;28;20103;-68
2024/01/20 09:23:15;;;;;;;1.10;1.10;;;2.10;99.90;;;;;;5016157;28;20112;-67
2024/01/20 09:25:41;;;;;;;0.30;0.30;;;2.10;99.90;;;;;;5026577;28;20132;-68
2024/01/20 09:28:06;;;;;;;0.45;0.45;;;2.10;99.90;;;;;;5039837;28;20385;-67
2024/01/20 09:30:35;;;;;;;0.30;0.30;;;2.10;99.90;;;;;;5028843;28;20045;-68
2024/01/20 09:33:02;;;;;;;0.52;0.52;;;2.10;99.90;;;;;;5016467;28;20137;-68
2024/01/20 09:35:27;;;;;;;0.20;0.20;;;2.20;99.90;;;;;;5025697;28;20042;-68
2024/01/20 09:37:53;;;;;;;0.40;0.40;;;2.20;99.90;;;;;;5028115;28;20053;-68
2024/01/20 09:40:19;;;;;;;2.28;1.75;;;2.20;99.90;;;;;;5020529;28;20103;-68
2024/01/20 09:42:45;;;;;;;0.25;0.25;;;2.20;99.90;;;;;;5023417;28;20068;-68
2024/01/20 09:45:11;;;;;;;2.20;1.40;;;2.20;99.90;;;;;;5027227;28;20075;-68
2024/01/20 09:47:37;;;;;;;5.57;1.90;;;2.20;99.90;;;;;;5020504;28;20056;-68
2024/01/20 09:50:04;;;;;;;0.20;0.20;;;2.30;99.90;;;;;;5023623;28;20401;-68
2024/01/20 09:52:31;;;;;;;6.88;1.85;;;2.30;99.90;;;;;;5026262;28;20045;-68
2024/01/20 09:55:21;;;;;;;0.40;0.40;;;2.30;99.90;;;;;;5019371;28;20128;-68
2024/01/20 09:57:48;;;;;;;1.10;1.10;;;2.40;99.90;;;;;;5026387;28;20041;-68
2024/01/20 10:00:18;;;;;;;0.22;0.22;;;2.30;99.90;;;;;;5026910;28;20080;-68
2024/01/20 10:02:47;;;;;;;0.73;0.73;;;2.40;99.90;;;;;;5017326;28;20045;-68
2024/01/20 10:05:14;;;;;;;0.75;0.75;;;2.40;99.90;;;;;;5027573;28;20675;-68
2024/01/20 10:07:40;;;;;;;0.68;0.65;;;2.40;99.90;;;;;;5017112;28;20396;-68
2024/01/20 10:10:07;;;;;;;0.90;0.90;;;2.40;99.90;;;;;;5021699;28;20068;-68
2024/01/20 10:12:33;;;;;;;1.15;1.15;;;2.50;99.90;;;;;;5023550;28;20575;-68
2024/01/20 10:14:58;;;;;;;0.45;0.45;;;2.50;99.90;;;;;;5025799;28;20050;-68
2024/01/20 10:17:24;;;;;;;1.90;1.75;;;2.50;99.90;;;;;;5024790;28;20059;-68
2024/01/20 10:19:50;;;;;;;0.73;0.73;;;2.60;99.90;;;;;;5028026;28;20481;-68
2024/01/20 10:22:16;;;;;;;1.80;1.70;;;2.60;99.90;;;;;;5021288;28;20061;-68
2024/01/20 10:24:51;;;;;;;4.95;2.25;;;2.70;99.90;;;;;;5024288;28;20049;-68
2024/01/20 10:27:18;;;;;;;1.45;1.35;;;2.70;99.90;;;;;;5019877;28;20037;-68
2024/01/20 10:29:45;;;;;;;0.50;0.50;;;2.80;99.90;;;;;;5026305;28;20147;-68
2024/01/20 10:32:11;;;;;;;1.17;1.10;;;2.80;99.90;;;;;;5018398;28;20057;-68
2024/01/20 10:34:36;;;;;;;0.17;0.17;;;2.90;99.90;;;;;;5038805;28;20045;-68
2024/01/20 10:37:07;;;;;;;1.20;1.17;;;2.80;99.90;;;;;;5017213;28;20104;-68
2024/01/20 10:39:45;;;;;;;0.32;0.32;;;2.80;99.90;;;;;;5021124;28;20057;-68
2024/01/20 10:42:12;;;;;;;0.30;0.30;;;2.80;99.90;;;;;;5018663;28;20054;-68
2024/01/20 10:45:08;;;;;;;2.08;1.98;;;2.90;99.90;;;;;;5023641;28;20054;-68
2024/01/20 10:47:40;;;;;;;4.47;2.42;;;2.80;99.90;;;;;;5019622;28;20062;-68
2024/01/20 10:50:07;;;;;;;2.35;2.15;;;2.80;99.90;;;;;;5019631;28;20080;-67
2024/01/20 10:52:34;;;;;;;0.90;0.90;;;2.80;99.90;;;;;;5028285;28;20045;-68
2024/01/20 10:55:01;;;;;;;2.47;2.28;;;2.80;99.90;;;;;;5018688;28;20041;-68
2024/01/20 10:57:27;;;;;;;1.05;1.02;;;2.80;99.90;;;;;;5024389;28;20052;-68
2024/01/20 11:00:01;;;;;;;1.98;1.50;;;2.80;99.90;;;;;;5016537;28;20042;-67
2024/01/20 11:02:27;;;;;;;1.02;1.02;;;2.80;99.90;;;;;;5024469;28;20061;-68
2024/01/20 11:04:53;;;;;;;5.63;4.53;;;2.80;99.90;;;;;;5025632;28;20056;-68
2024/01/20 11:07:28;;;;;;;1.00;1.00;;;2.80;99.90;;;;;;5019020;28;20111;-67
2024/01/20 11:09:58;;;;;;;3.95;1.67;;;2.80;99.90;;;;;;5025611;28;20037;-68
2024/01/20 11:12:24;;;;;;;0.30;0.30;;;2.80;99.90;;;;;;5027889;28;20085;-68
2024/01/20 11:14:55;;;;;;;1.45;1.35;;;2.80;99.90;;;;;;5017594;28;20044;-68
2024/01/20 11:17:22;;;;;;;0.20;0.20;;;2.80;99.90;;;;;;5017705;28;20145;-67
2024/01/20 11:19:47;;;;;;;1.20;1.20;;;2.80;99.90;;;;;;5020253;28;20042;-67
2024/01/20 11:22:33;;;;;;;3.50;1.85;;;2.80;99.90;;;;;;5029108;28;20052;-67
2024/01/20 11:25:06;;;;;;;2.10;1.08;;;2.80;99.90;;;;;;5019479;28;20088;-68
2024/01/20 11:27:43;;;;;;;3.08;2.85;;;2.80;99.90;;;;;;5026173;28;21023;-68
2024/01/20 11:30:09;;;;;;;0.32;0.30;;;2.80;99.90;;;;;;5033045;28;20042;-66
2024/01/20 11:32:35;;;;;;;0.20;0.20;;;2.80;99.90;;;;;;5026815;28;20038;-67
2024/01/20 11:35:03;;;;;;;2.45;1.65;;;2.80;99.90;;;;;;5023483;28;20611;-67
2024/01/20 11:37:30;;;;;;;4.22;3.10;;;2.80;99.90;;;;;;5028101;28;20434;-66
2024/01/20 11:40:07;;;;;;;3.35;3.13;;;2.80;99.90;;;;;;5025564;28;20140;-66
2024/01/20 11:42:38;;;;;;;1.20;1.20;;;2.80;99.90;;;;;;5025278;28;20041;-66
2024/01/20 11:45:04;;;;;;;1.02;1.02;;;2.80;99.90;;;;;;5031422;28;20588;-66
2024/01/20 11:47:30;;;;;;;6.35;1.25;;;2.90;99.90;;;;;;5027023;28;20576;-66
2024/01/20 11:49:57;;;;;;;3.40;2.13;;;2.90;99.90;;;;;;5016571;28;20048;-66
2024/01/20 11:52:24;;;;;;;0.43;0.43;;;2.90;99.90;;;;;;5029781;28;20055;-66
2024/01/20 11:54:49;;;;;;;3.15;2.80;;;2.90;99.90;;;;;;5032801;28;20048;-66
2024/01/20 11:57:20;;;;;;;8.75;4.45;;;2.90;99.90;;;;;;5033068;28;20037;-66
2024/01/20 11:59:45;;;;;;;0.52;0.43;;;2.90;99.90;;;;;;5021524;28;20504;-66
2024/01/20 12:02:11;;;;;;;2.30;2.03;;;2.90;99.90;;;;;;5021552;28;20029;-66
2024/01/20 12:04:38;;;;;;;0.60;0.60;;;2.90;99.90;;;;;;5024491;28;20086;-66
2024/01/20 12:07:03;;;;;;;1.30;1.30;;;2.90;99.90;;;;;;5026968;28;20100;-66
2024/01/20 12:09:29;;;;;;;1.55;0.70;;;2.90;99.90;;;;;;5016572;28;20516;-66
2024/01/20 12:11:56;;;;;;;0.65;0.65;;;2.90;99.90;;;;;;5023957;28;20049;-66
2024/01/20 12:14:22;;;;;;;1.45;1.25;;;2.90;99.90;;;;;;5024201;28;20050;-66
2024/01/20 12:16:48;;;;;;;1.15;1.15;;;2.90;99.90;;;;;;5016071;28;20057;-66
2024/01/20 12:19:15;;;;;;;0.20;0.20;;;2.90;99.90;;;;;;5028582;28;20049;-66
2024/01/20 12:21:40;;;;;;;0.75;0.75;;;3.00;99.90;;;;;;5024619;28;20046;-66
2024/01/20 12:24:09;;;;;;;1.13;1.10;;;3.00;99.90;;;;;;5025049;28;20053;-66
2024/01/20 12:26:35;;;;;;;0.57;0.57;;;2.90;99.90;;;;;;5011357;28;20046;-66
2024/01/20 12:29:00;;;;;;;0.63;0.63;;;3.00;99.90;;;;;;5024583;28;20052;-66
2024/01/20 12:31:26;;;;;;;0.77;0.77;;;3.00;99.90;;;;;;5027017;28;20087;-66
2024/01/20 12:33:52;;;;;;;1.65;1.55;;;3.00;99.90;;;;;;5020169;28;20508;-66
2024/01/20 12:36:17;;;;;;;6.97;2.92;;;2.90;99.90;;;;;;5023471;28;20069;-66
2024/01/20 12:38:43;;;;;;;1.42;1.40;;;2.80;99.90;;;;;;5027479;28;20053;-66
2024/01/20 12:41:09;;;;;;;1.40;1.30;;;2.80;99.90;;;;;;5020706;28;20052;-66
2024/01/20 12:43:35;;;;;;;0.77;0.77;;;2.80;99.90;;;;;;5028152;28;20615;-66
2024/01/20 12:46:01;;;;;;;1.45;1.35;;;2.80;99.90;;;;;;5028350;28;20116;-66
2024/01/20 12:48:27;;;;;;;2.05;1.38;;;2.80;99.90;;;;;;5025741;28;20145;-66
2024/01/20 12:50:53;;;;;;;1.27;1.17;;;2.80;99.90;;;;;;5037578;28;20557;-66
2024/01/20 12:53:19;;;;;;;0.63;0.63;;;2.90;99.90;;;;;;5028335;28;20049;-66